sensor_id;sensor_type;location;lat;lon;timestamp;pressure;altitude;pressure_sealevel;temperature;humidity
740;BME280;354;42.694;23.336;2023-02-02T00:01:23;95346.94;;;5.02;88.79
740;BME280;354;42.694;23.336;2023-02-02T00:03:49;95353.38;;;5.14;88.75
740;BME280;354;42.694;23.336;2023-02-02T00:06:19;95360.84;;;5.17;88.87
740;BME280;354;42.694;23.336;2023-02-02T00:08:45;95352.84;;;5.19;87.57
740;BME280;354;42.694;23.336;2023-02-02T00:11:11;95344.03;;;5.20;87.50
740;BME280;354;42.694;23.336;2023-02-02T00:13:37;95353.47;;;5.21;86.17
740;BME280;354;42.694;23.336;2023-02-02T00:18:56;95343.22;;;5.19;85.24
740;BME280;354;42.694;23.336;2023-02-02T00:21:22;95353.66;;;5.19;85.60
740;BME280;354;42.694;23.336;2023-02-02T00:23:48;95348.97;;;5.15;85.40
740;BME280;354;42.694;23.336;2023-02-02T00:26:13;95357.78;;;5.14;85.55
740;BME280;354;42.694;23.336;2023-02-02T00:28:39;95344.94;;;5.12;84.82
740;BME280;354;42.694;23.336;2023-02-02T00:31:04;95359.56;;;5.13;85.06
740;BME280;354;42.694;23.336;2023-02-02T00:33:30;95357.97;;;5.12;85.03
740;BME280;354;42.694;23.336;2023-02-02T00:35:55;95357.16;;;5.12;85.61
740;BME280;354;42.694;23.336;2023-02-02T00:38:20;95362.00;;;5.15;84.91
740;BME280;354;42.694;23.336;2023-02-02T00:40:46;95368.69;;;5.17;84.44
740;BME280;354;42.694;23.336;2023-02-02T00:43:11;95366.59;;;5.13;84.82
740;BME280;354;42.694;23.336;2023-02-02T00:45:37;95365.78;;;5.12;85.92
740;BME280;354;42.694;23.336;2023-02-02T00:48:03;95375.63;;;5.02;85.39
740;BME280;354;42.694;23.336;2023-02-02T00:50:29;95364.19;;;5.03;85.82
740;BME280;354;42.694;23.336;2023-02-02T00:52:55;95370.91;;;4.97;86.10
740;BME280;354;42.694;23.336;2023-02-02T00:55:22;95374.34;;;4.98;87.39
740;BME280;354;42.694;23.336;2023-02-02T00:57:47;95366.88;;;4.95;86.98
740;BME280;354;42.694;23.336;2023-02-02T01:00:15;95366.19;;;5.01;87.86
740;BME280;354;42.694;23.336;2023-02-02T01:02:42;95353.56;;;4.90;88.89
740;BME280;354;42.694;23.336;2023-02-02T01:05:08;95352.38;;;4.92;89.72
740;BME280;354;42.694;23.336;2023-02-02T01:07:33;95352.75;;;4.89;90.75
740;BME280;354;42.694;23.336;2023-02-02T01:09:59;95347.84;;;4.86;93.05
740;BME280;354;42.694;23.336;2023-02-02T01:12:24;95350.00;;;4.83;96.22
740;BME280;354;42.694;23.336;2023-02-02T01:14:50;95339.63;;;4.74;96.93
740;BME280;354;42.694;23.336;2023-02-02T01:17:15;95340.44;;;4.75;97.92
740;BME280;354;42.694;23.336;2023-02-02T01:19:40;95334.31;;;4.68;99.78
740;BME280;354;42.694;23.336;2023-02-02T01:22:07;95337.75;;;4.60;100.00
740;BME280;354;42.694;23.336;2023-02-02T01:24:32;95343.53;;;4.39;100.00
740;BME280;354;42.694;23.336;2023-02-02T01:26:58;95342.34;;;4.19;100.00
740;BME280;354;42.694;23.336;2023-02-02T01:29:24;95328.56;;;4.02;100.00
740;BME280;354;42.694;23.336;2023-02-02T01:31:49;95336.75;;;3.91;100.00
740;BME280;354;42.694;23.336;2023-02-02T01:34:15;95328.16;;;3.74;100.00
740;BME280;354;42.694;23.336;2023-02-02T01:36:40;95328.53;;;3.63;100.00
740;BME280;354;42.694;23.336;2023-02-02T01:39:05;95324.47;;;3.52;100.00
740;BME280;354;42.694;23.336;2023-02-02T01:41:31;95327.38;;;3.65;100.00
740;BME280;354;42.694;23.336;2023-02-02T01:43:59;95334.22;;;3.58;100.00
740;BME280;354;42.694;23.336;2023-02-02T01:46:30;95332.88;;;3.62;100.00
740;BME280;354;42.694;23.336;2023-02-02T01:49:13;95317.28;;;3.62;100.00
740;BME280;354;42.694;23.336;2023-02-02T01:54:12;95323.16;;;3.40;100.00
740;BME280;354;42.694;23.336;2023-02-02T01:56:43;95314.44;;;3.25;100.00
740;BME280;354;42.694;23.336;2023-02-02T01:59:11;95308.41;;;3.16;100.00
740;BME280;354;42.694;23.336;2023-02-02T02:01:38;95305.34;;;3.04;100.00
740;BME280;354;42.694;23.336;2023-02-02T02:04:04;95302.06;;;3.10;100.00
740;BME280;354;42.694;23.336;2023-02-02T02:06:29;95299.78;;;3.07;100.00
740;BME280;354;42.694;23.336;2023-02-02T02:09:01;95298.34;;;3.05;100.00
740;BME280;354;42.694;23.336;2023-02-02T02:11:28;95304.19;;;2.99;100.00
740;BME280;354;42.694;23.336;2023-02-02T02:13:56;95305.00;;;2.99;100.00
740;BME280;354;42.694;23.336;2023-02-02T02:17:09;95315.38;;;2.91;100.00
740;BME280;354;42.694;23.336;2023-02-02T02:34:07;95317.69;;;2.86;100.00
740;BME280;354;42.694;23.336;2023-02-02T02:36:47;95318.28;;;2.80;100.00
740;BME280;354;42.694;23.336;2023-02-02T02:39:26;95314.06;;;2.79;100.00
740;BME280;354;42.694;23.336;2023-02-02T02:41:57;95313.09;;;2.72;100.00
740;BME280;354;42.694;23.336;2023-02-02T02:44:25;95318.47;;;2.78;100.00
740;BME280;354;42.694;23.336;2023-02-02T02:46:52;95317.81;;;2.76;100.00
740;BME280;354;42.694;23.336;2023-02-02T02:49:18;95309.34;;;2.74;100.00
740;BME280;354;42.694;23.336;2023-02-02T02:51:51;95313.75;;;2.74;100.00
740;BME280;354;42.694;23.336;2023-02-02T02:56:53;95311.31;;;2.64;100.00
740;BME280;354;42.694;23.336;2023-02-02T03:10:28;95296.88;;;2.70;100.00
740;BME280;354;42.694;23.336;2023-02-02T03:12:55;95303.03;;;2.69;100.00
740;BME280;354;42.694;23.336;2023-02-02T03:15:21;95315.53;;;2.73;100.00
740;BME280;354;42.694;23.336;2023-02-02T03:17:47;95307.59;;;2.75;100.00
740;BME280;354;42.694;23.336;2023-02-02T03:20:14;95306.28;;;2.79;100.00
740;BME280;354;42.694;23.336;2023-02-02T03:22:39;95298.81;;;2.76;100.00
740;BME280;354;42.694;23.336;2023-02-02T03:25:05;95302.72;;;2.72;100.00
740;BME280;354;42.694;23.336;2023-02-02T03:27:31;95301.56;;;2.66;100.00
740;BME280;354;42.694;23.336;2023-02-02T03:29:57;95303.03;;;2.77;100.00
740;BME280;354;42.694;23.336;2023-02-02T03:32:23;95296.88;;;2.78;100.00
740;BME280;354;42.694;23.336;2023-02-02T03:34:48;95304.50;;;2.79;100.00
740;BME280;354;42.694;23.336;2023-02-02T03:37:14;95300.09;;;2.80;100.00
740;BME280;354;42.694;23.336;2023-02-02T03:39:39;95309.22;;;2.76;100.00
740;BME280;354;42.694;23.336;2023-02-02T03:42:04;95306.28;;;2.71;100.00
740;BME280;354;42.694;23.336;2023-02-02T03:44:30;95276.22;;;2.44;100.00
740;BME280;354;42.694;23.336;2023-02-02T03:46:55;95310.16;;;2.67;100.00
740;BME280;354;42.694;23.336;2023-02-02T03:49:20;95307.56;;;2.67;100.00
740;BME280;354;42.694;23.336;2023-02-02T03:51:46;95317.31;;;2.64;100.00
740;BME280;354;42.694;23.336;2023-02-02T03:54:12;95318.44;;;2.62;100.00
740;BME280;354;42.694;23.336;2023-02-02T03:56:38;95322.19;;;2.59;100.00
740;BME280;354;42.694;23.336;2023-02-02T03:59:03;95320.34;;;2.52;100.00
740;BME280;354;42.694;23.336;2023-02-02T04:01:29;95321.66;;;2.48;100.00
740;BME280;354;42.694;23.336;2023-02-02T04:03:55;95327.63;;;2.40;100.00
740;BME280;354;42.694;23.336;2023-02-02T04:06:21;95329.53;;;2.30;100.00
740;BME280;354;42.694;23.336;2023-02-02T04:08:47;95322.84;;;2.11;100.00
740;BME280;354;42.694;23.336;2023-02-02T04:11:12;95315.97;;;1.94;100.00
740;BME280;354;42.694;23.336;2023-02-02T04:13:37;95320.91;;;1.79;100.00
740;BME280;354;42.694;23.336;2023-02-02T04:16:04;95314.84;;;1.70;100.00
740;BME280;354;42.694;23.336;2023-02-02T04:18:29;95328.16;;;1.75;100.00
740;BME280;354;42.694;23.336;2023-02-02T04:20:59;95320.72;;;1.72;100.00
740;BME280;354;42.694;23.336;2023-02-02T04:23:26;95330.94;;;1.74;100.00
740;BME280;354;42.694;23.336;2023-02-02T04:25:52;95319.28;;;1.78;100.00
740;BME280;354;42.694;23.336;2023-02-02T04:28:18;95331.00;;;1.82;100.00
740;BME280;354;42.694;23.336;2023-02-02T04:30:43;95314.44;;;1.83;100.00
740;BME280;354;42.694;23.336;2023-02-02T04:33:09;95328.75;;;1.87;100.00
740;BME280;354;42.694;23.336;2023-02-02T04:35:34;95320.63;;;1.90;100.00
740;BME280;354;42.694;23.336;2023-02-02T04:37:59;95317.41;;;1.96;100.00
740;BME280;354;42.694;23.336;2023-02-02T04:40:25;95313.22;;;1.95;100.00
740;BME280;354;42.694;23.336;2023-02-02T04:42:50;95321.63;;;1.89;100.00
740;BME280;354;42.694;23.336;2023-02-02T04:45:16;95335.22;;;1.91;100.00
740;BME280;354;42.694;23.336;2023-02-02T04:47:42;95336.66;;;1.85;100.00
740;BME280;354;42.694;23.336;2023-02-02T04:50:07;95333.72;;;1.80;100.00
740;BME280;354;42.694;23.336;2023-02-02T04:52:33;95339.72;;;1.81;100.00
740;BME280;354;42.694;23.336;2023-02-02T04:54:59;95332.59;;;1.83;100.00
740;BME280;354;42.694;23.336;2023-02-02T04:57:24;95339.56;;;1.82;100.00
740;BME280;354;42.694;23.336;2023-02-02T04:59:50;95337.75;;;1.75;100.00
740;BME280;354;42.694;23.336;2023-02-02T05:02:15;95336.19;;;1.82;100.00
740;BME280;354;42.694;23.336;2023-02-02T05:04:41;95332.91;;;1.80;100.00
740;BME280;354;42.694;23.336;2023-02-02T05:07:06;95341.50;;;1.80;100.00
740;BME280;354;42.694;23.336;2023-02-02T05:09:31;95342.56;;;1.70;100.00
740;BME280;354;42.694;23.336;2023-02-02T05:11:57;95352.00;;;1.71;100.00
740;BME280;354;42.694;23.336;2023-02-02T05:14:22;95339.63;;;1.65;100.00
740;BME280;354;42.694;23.336;2023-02-02T05:16:47;95338.19;;;1.70;100.00
740;BME280;354;42.694;23.336;2023-02-02T05:19:14;95329.75;;;1.68;100.00
740;BME280;354;42.694;23.336;2023-02-02T05:21:42;95336.69;;;1.60;100.00
740;BME280;354;42.694;23.336;2023-02-02T05:24:09;95332.25;;;1.52;100.00
740;BME280;354;42.694;23.336;2023-02-02T05:26:34;95326.47;;;1.58;100.00
740;BME280;354;42.694;23.336;2023-02-02T05:29:00;95331.81;;;1.56;100.00
740;BME280;354;42.694;23.336;2023-02-02T05:31:25;95335.38;;;1.55;100.00
740;BME280;354;42.694;23.336;2023-02-02T05:33:51;95344.41;;;1.51;100.00
740;BME280;354;42.694;23.336;2023-02-02T05:36:16;95339.59;;;1.56;100.00
740;BME280;354;42.694;23.336;2023-02-02T05:38:41;95338.44;;;1.59;100.00
740;BME280;354;42.694;23.336;2023-02-02T05:41:07;95345.19;;;1.44;100.00
740;BME280;354;42.694;23.336;2023-02-02T05:43:32;95343.97;;;1.56;100.00
740;BME280;354;42.694;23.336;2023-02-02T05:45:58;95343.31;;;1.54;100.00
740;BME280;354;42.694;23.336;2023-02-02T05:48:24;95337.81;;;1.57;100.00
740;BME280;354;42.694;23.336;2023-02-02T05:51:20;95349.84;;;1.66;100.00
740;BME280;354;42.694;23.336;2023-02-02T05:53:46;95349.41;;;1.71;100.00
740;BME280;354;42.694;23.336;2023-02-02T05:56:12;95357.84;;;1.73;100.00
740;BME280;354;42.694;23.336;2023-02-02T05:58:38;95352.03;;;1.79;100.00
740;BME280;354;42.694;23.336;2023-02-02T06:01:03;95357.88;;;1.81;100.00
740;BME280;354;42.694;23.336;2023-02-02T06:03:29;95353.66;;;1.80;100.00
740;BME280;354;42.694;23.336;2023-02-02T06:05:54;95340.66;;;1.72;100.00
740;BME280;354;42.694;23.336;2023-02-02T06:08:19;95352.47;;;1.74;100.00
740;BME280;354;42.694;23.336;2023-02-02T06:10:45;95356.22;;;1.72;100.00
740;BME280;354;42.694;23.336;2023-02-02T06:13:10;95359.66;;;1.80;100.00
740;BME280;354;42.694;23.336;2023-02-02T06:15:36;95361.13;;;1.83;100.00
740;BME280;354;42.694;23.336;2023-02-02T06:18:01;95351.31;;;1.95;100.00
740;BME280;354;42.694;23.336;2023-02-02T06:20:27;95357.66;;;2.00;100.00
740;BME280;354;42.694;23.336;2023-02-02T06:22:53;95366.84;;;2.21;100.00
740;BME280;354;42.694;23.336;2023-02-02T06:25:18;95367.03;;;2.27;100.00
740;BME280;354;42.694;23.336;2023-02-02T06:27:44;95374.47;;;2.30;100.00
740;BME280;354;42.694;23.336;2023-02-02T06:30:11;95381.97;;;2.33;100.00
740;BME280;354;42.694;23.336;2023-02-02T06:32:36;95378.72;;;2.31;100.00
740;BME280;354;42.694;23.336;2023-02-02T06:35:03;95385.19;;;2.35;100.00
740;BME280;354;42.694;23.336;2023-02-02T06:37:28;95364.41;;;2.27;100.00
740;BME280;354;42.694;23.336;2023-02-02T06:39:54;95389.44;;;2.36;100.00
740;BME280;354;42.694;23.336;2023-02-02T06:42:19;95395.78;;;2.42;100.00
740;BME280;354;42.694;23.336;2023-02-02T06:44:44;95388.81;;;2.43;100.00
740;BME280;354;42.694;23.336;2023-02-02T06:47:10;95375.84;;;2.43;100.00
740;BME280;354;42.694;23.336;2023-02-02T06:49:35;95377.34;;;2.53;100.00
740;BME280;354;42.694;23.336;2023-02-02T06:52:01;95388.13;;;2.75;100.00
740;BME280;354;42.694;23.336;2023-02-02T06:54:26;95389.09;;;2.82;100.00
740;BME280;354;42.694;23.336;2023-02-02T06:56:51;95381.78;;;2.85;100.00
740;BME280;354;42.694;23.336;2023-02-02T06:59:17;95382.47;;;3.04;100.00
740;BME280;354;42.694;23.336;2023-02-02T07:01:44;95391.06;;;3.04;100.00
740;BME280;354;42.694;23.336;2023-02-02T07:04:10;95394.31;;;3.06;100.00
740;BME280;354;42.694;23.336;2023-02-02T07:06:35;95405.06;;;3.03;100.00
740;BME280;354;42.694;23.336;2023-02-02T07:09:00;95403.09;;;3.05;100.00
740;BME280;354;42.694;23.336;2023-02-02T07:11:26;95395.94;;;2.99;100.00
740;BME280;354;42.694;23.336;2023-02-02T07:13:51;95386.84;;;2.95;100.00
740;BME280;354;42.694;23.336;2023-02-02T07:16:17;95395.63;;;3.10;100.00
740;BME280;354;42.694;23.336;2023-02-02T07:18:43;95397.59;;;3.25;100.00
740;BME280;354;42.694;23.336;2023-02-02T07:21:19;95398.22;;;3.35;100.00
740;BME280;354;42.694;23.336;2023-02-02T07:23:45;95404.09;;;3.61;100.00
740;BME280;354;42.694;23.336;2023-02-02T07:26:11;95402.81;;;3.41;100.00
740;BME280;354;42.694;23.336;2023-02-02T07:28:38;95409.28;;;3.29;100.00
740;BME280;354;42.694;23.336;2023-02-02T07:31:19;95405.84;;;3.12;100.00
740;BME280;354;42.694;23.336;2023-02-02T07:33:46;95404.41;;;3.09;100.00
740;BME280;354;42.694;23.336;2023-02-02T07:36:13;95418.72;;;3.22;100.00
740;BME280;354;42.694;23.336;2023-02-02T07:38:43;95417.25;;;3.27;100.00
740;BME280;354;42.694;23.336;2023-02-02T07:41:10;95417.75;;;3.31;100.00
740;BME280;354;42.694;23.336;2023-02-02T07:43:35;95416.44;;;3.43;100.00
740;BME280;354;42.694;23.336;2023-02-02T07:46:02;95406.38;;;3.48;100.00
740;BME280;354;42.694;23.336;2023-02-02T07:48:31;95404.06;;;3.78;100.00
740;BME280;354;42.694;23.336;2023-02-02T07:51:01;95397.88;;;3.87;100.00
740;BME280;354;42.694;23.336;2023-02-02T07:53:27;95380.63;;;4.02;100.00
740;BME280;354;42.694;23.336;2023-02-02T07:55:53;95380.09;;;4.15;100.00
740;BME280;354;42.694;23.336;2023-02-02T07:58:18;95377.94;;;4.27;100.00
740;BME280;354;42.694;23.336;2023-02-02T08:00:44;95376.94;;;4.36;100.00
740;BME280;354;42.694;23.336;2023-02-02T08:03:10;95370.38;;;4.48;100.00
740;BME280;354;42.694;23.336;2023-02-02T08:05:36;95361.50;;;4.65;100.00
740;BME280;354;42.694;23.336;2023-02-02T08:08:02;95365.59;;;4.91;100.00
740;BME280;354;42.694;23.336;2023-02-02T08:10:27;95367.69;;;5.18;100.00
740;BME280;354;42.694;23.336;2023-02-02T08:12:52;95368.47;;;5.42;100.00
740;BME280;354;42.694;23.336;2023-02-02T08:15:18;95372.16;;;5.70;100.00
740;BME280;354;42.694;23.336;2023-02-02T08:17:44;95364.34;;;5.85;100.00
740;BME280;354;42.694;23.336;2023-02-02T08:20:11;95359.38;;;5.75;100.00
740;BME280;354;42.694;23.336;2023-02-02T08:22:37;95357.84;;;5.66;100.00
740;BME280;354;42.694;23.336;2023-02-02T08:25:04;95368.28;;;5.66;100.00
740;BME280;354;42.694;23.336;2023-02-02T08:27:29;95363.31;;;5.71;100.00
740;BME280;354;42.694;23.336;2023-02-02T08:29:55;95361.38;;;5.73;100.00
740;BME280;354;42.694;23.336;2023-02-02T08:32:20;95352.81;;;5.79;100.00
740;BME280;354;42.694;23.336;2023-02-02T08:34:49;95351.44;;;6.06;100.00
740;BME280;354;42.694;23.336;2023-02-02T08:37:16;95353.78;;;6.16;100.00
740;BME280;354;42.694;23.336;2023-02-02T08:39:41;95344.31;;;6.30;99.48
740;BME280;354;42.694;23.336;2023-02-02T08:42:07;95343.91;;;6.48;98.50
740;BME280;354;42.694;23.336;2023-02-02T08:44:32;95344.44;;;6.58;96.74
740;BME280;354;42.694;23.336;2023-02-02T08:46:58;95333.84;;;6.45;94.86
740;BME280;354;42.694;23.336;2023-02-02T08:49:23;95324.47;;;6.36;95.18
740;BME280;354;42.694;23.336;2023-02-02T08:51:49;95321.69;;;6.37;94.59
740;BME280;354;42.694;23.336;2023-02-02T08:54:15;95324.66;;;6.49;95.95
740;BME280;354;42.694;23.336;2023-02-02T08:56:40;95326.81;;;6.45;95.81
740;BME280;354;42.694;23.336;2023-02-02T08:59:06;95316.28;;;6.39;92.42
740;BME280;354;42.694;23.336;2023-02-02T09:01:32;95323.66;;;6.50;94.91
740;BME280;354;42.694;23.336;2023-02-02T09:04:00;95327.69;;;6.52;92.57
740;BME280;354;42.694;23.336;2023-02-02T09:06:37;95326.22;;;6.65;92.26
740;BME280;354;42.694;23.336;2023-02-02T09:09:04;95322.03;;;6.85;90.47
740;BME280;354;42.694;23.336;2023-02-02T09:11:31;95312.66;;;7.12;89.79
740;BME280;354;42.694;23.336;2023-02-02T09:13:57;95317.09;;;7.39;89.27
740;BME280;354;42.694;23.336;2023-02-02T09:16:25;95314.19;;;7.49;86.21
740;BME280;354;42.694;23.336;2023-02-02T09:18:51;95303.22;;;7.67;83.85
740;BME280;354;42.694;23.336;2023-02-02T09:21:17;95314.69;;;7.66;84.04
740;BME280;354;42.694;23.336;2023-02-02T09:23:44;95312.44;;;7.63;82.76
740;BME280;354;42.694;23.336;2023-02-02T09:26:16;95310.81;;;7.90;82.37
740;BME280;354;42.694;23.336;2023-02-02T09:28:45;95308.63;;;7.93;81.73
740;BME280;354;42.694;23.336;2023-02-02T09:31:10;95307.41;;;7.89;81.02
740;BME280;354;42.694;23.336;2023-02-02T09:33:36;95295.97;;;7.97;80.58
740;BME280;354;42.694;23.336;2023-02-02T09:36:04;95293.94;;;7.92;80.38
740;BME280;354;42.694;23.336;2023-02-02T09:38:29;95271.59;;;7.97;79.49
740;BME280;354;42.694;23.336;2023-02-02T09:40:54;95278.13;;;8.14;79.47
740;BME280;354;42.694;23.336;2023-02-02T09:47:04;95281.16;;;8.59;77.62
740;BME280;354;42.694;23.336;2023-02-02T09:54:49;95275.19;;;9.05;74.70
740;BME280;354;42.694;23.336;2023-02-02T09:57:23;95274.81;;;9.28;75.04
740;BME280;354;42.694;23.336;2023-02-02T09:59:51;95266.75;;;9.29;74.64
740;BME280;354;42.694;23.336;2023-02-02T10:02:25;95267.94;;;9.07;74.80
740;BME280;354;42.694;23.336;2023-02-02T10:04:54;95274.81;;;9.14;74.14
740;BME280;354;42.694;23.336;2023-02-02T10:07:28;95253.41;;;9.24;72.93
740;BME280;354;42.694;23.336;2023-02-02T10:10:08;95256.84;;;9.58;72.63
740;BME280;354;42.694;23.336;2023-02-02T10:16:12;95246.88;;;9.86;68.36
740;BME280;354;42.694;23.336;2023-02-02T10:18:49;95240.41;;;9.89;69.57
740;BME280;354;42.694;23.336;2023-02-02T10:21:26;95240.16;;;10.03;67.28
740;BME280;354;42.694;23.336;2023-02-02T10:23:53;95237.31;;;10.63;69.54
740;BME280;354;42.694;23.336;2023-02-02T10:26:29;95248.28;;;10.92;66.56
740;BME280;354;42.694;23.336;2023-02-02T10:31:40;95237.09;;;10.65;63.07
740;BME280;354;42.694;23.336;2023-02-02T10:41:58;95219.41;;;11.10;61.02
740;BME280;354;42.694;23.336;2023-02-02T10:47:03;95195.38;;;11.25;60.47
740;BME280;354;42.694;23.336;2023-02-02T10:49:32;95183.09;;;11.19;61.19
740;BME280;354;42.694;23.336;2023-02-02T10:52:03;95181.59;;;11.04;59.72
740;BME280;354;42.694;23.336;2023-02-02T10:54:56;95184.06;;;10.99;59.12
740;BME280;354;42.694;23.336;2023-02-02T15:30:12;95359.56;;;3.40;100.00
740;BME280;354;42.694;23.336;2023-02-02T15:32:40;95376.81;;;3.41;100.00
740;BME280;354;42.694;23.336;2023-02-02T15:35:13;95375.66;;;3.27;100.00
740;BME280;354;42.694;23.336;2023-02-02T15:37:44;95354.38;;;3.07;100.00
740;BME280;354;42.694;23.336;2023-02-02T15:40:30;95360.72;;;3.21;100.00
740;BME280;354;42.694;23.336;2023-02-02T15:42:59;95367.69;;;3.04;100.00
740;BME280;354;42.694;23.336;2023-02-02T15:45:38;95358.75;;;2.99;100.00
740;BME280;354;42.694;23.336;2023-02-02T15:48:20;95391.56;;;3.16;100.00
740;BME280;354;42.694;23.336;2023-02-02T15:50:48;95390.59;;;3.09;100.00
740;BME280;354;42.694;23.336;2023-02-02T15:54:17;95395.31;;;3.13;100.00
740;BME280;354;42.694;23.336;2023-02-02T15:58:52;95396.94;;;3.14;100.00
740;BME280;354;42.694;23.336;2023-02-02T16:01:20;95410.59;;;3.25;100.00
740;BME280;354;42.694;23.336;2023-02-02T16:03:59;95424.88;;;3.21;100.00
740;BME280;354;42.694;23.336;2023-02-02T16:06:29;95420.00;;;3.17;100.00
740;BME280;354;42.694;23.336;2023-02-02T16:08:55;95411.06;;;3.12;100.00
740;BME280;354;42.694;23.336;2023-02-02T16:11:22;95403.13;;;3.13;100.00
740;BME280;354;42.694;23.336;2023-02-02T16:13:59;95422.59;;;3.09;100.00
740;BME280;354;42.694;23.336;2023-02-02T16:16:28;95426.97;;;3.09;100.00
740;BME280;354;42.694;23.336;2023-02-02T16:19:13;95441.72;;;2.92;100.00
740;BME280;354;42.694;23.336;2023-02-02T16:24:30;95448.56;;;3.01;100.00
740;BME280;354;42.694;23.336;2023-02-02T16:26:59;95444.00;;;2.95;100.00
740;BME280;354;42.694;23.336;2023-02-02T16:29:25;95444.13;;;2.85;100.00
740;BME280;354;42.694;23.336;2023-02-02T16:31:52;95431.00;;;2.87;100.00
740;BME280;354;42.694;23.336;2023-02-02T16:37:13;95438.53;;;3.23;100.00
740;BME280;354;42.694;23.336;2023-02-02T16:39:40;95444.69;;;3.22;100.00
740;BME280;354;42.694;23.336;2023-02-02T16:42:09;95430.09;;;3.29;100.00
740;BME280;354;42.694;23.336;2023-02-02T16:44:42;95441.13;;;3.14;100.00
740;BME280;354;42.694;23.336;2023-02-02T16:52:32;95456.56;;;3.16;100.00
740;BME280;354;42.694;23.336;2023-02-02T16:54:58;95453.13;;;3.15;100.00
740;BME280;354;42.694;23.336;2023-02-02T16:57:31;95445.66;;;3.04;100.00
740;BME280;354;42.694;23.336;2023-02-02T16:59:59;95452.63;;;3.12;100.00
740;BME280;354;42.694;23.336;2023-02-02T17:02:35;95460.81;;;3.25;100.00
740;BME280;354;42.694;23.336;2023-02-02T17:07:33;95430.03;;;2.96;100.00
740;BME280;354;42.694;23.336;2023-02-02T17:12:45;95460.59;;;3.02;100.00
740;BME280;354;42.694;23.336;2023-02-02T17:17:47;95458.59;;;2.96;100.00
740;BME280;354;42.694;23.336;2023-02-02T17:20:16;95462.84;;;2.97;100.00
740;BME280;354;42.694;23.336;2023-02-02T17:22:47;95456.34;;;2.93;100.00
740;BME280;354;42.694;23.336;2023-02-02T17:25:15;95446.25;;;2.90;100.00
740;BME280;354;42.694;23.336;2023-02-02T17:27:41;95455.06;;;3.05;100.00
740;BME280;354;42.694;23.336;2023-02-02T17:30:13;95447.44;;;3.04;100.00
740;BME280;354;42.694;23.336;2023-02-02T17:32:40;95433.16;;;3.08;100.00
740;BME280;354;42.694;23.336;2023-02-02T17:35:25;95431.72;;;3.13;100.00
740;BME280;354;42.694;23.336;2023-02-02T17:37:51;95441.09;;;3.06;100.00
740;BME280;354;42.694;23.336;2023-02-02T17:40:20;95457.69;;;3.13;100.00
740;BME280;354;42.694;23.336;2023-02-02T17:42:47;95456.03;;;3.12;100.00
740;BME280;354;42.694;23.336;2023-02-02T17:45:20;95455.75;;;3.15;100.00
740;BME280;354;42.694;23.336;2023-02-02T17:47:47;95466.44;;;3.12;100.00
740;BME280;354;42.694;23.336;2023-02-02T17:50:13;95429.56;;;3.01;100.00
740;BME280;354;42.694;23.336;2023-02-02T17:52:38;95436.25;;;3.20;100.00
740;BME280;354;42.694;23.336;2023-02-02T17:55:22;95441.78;;;3.33;100.00
740;BME280;354;42.694;23.336;2023-02-02T17:57:49;95453.34;;;3.30;100.00
740;BME280;354;42.694;23.336;2023-02-02T18:00:17;95447.31;;;3.30;100.00
740;BME280;354;42.694;23.336;2023-02-02T18:02:43;95452.19;;;3.33;100.00
740;BME280;354;42.694;23.336;2023-02-02T18:05:09;95439.34;;;3.15;100.00
740;BME280;354;42.694;23.336;2023-02-02T18:07:35;95461.28;;;3.29;100.00
740;BME280;354;42.694;23.336;2023-02-02T18:10:02;95465.19;;;3.25;100.00
740;BME280;354;42.694;23.336;2023-02-02T18:12:27;95469.41;;;3.26;100.00
740;BME280;354;42.694;23.336;2023-02-02T18:14:53;95462.75;;;3.31;100.00
740;BME280;354;42.694;23.336;2023-02-02T18:17:18;95460.16;;;3.31;100.00
740;BME280;354;42.694;23.336;2023-02-02T18:19:45;95455.78;;;3.32;100.00
740;BME280;354;42.694;23.336;2023-02-02T18:22:11;95446.31;;;3.23;100.00
740;BME280;354;42.694;23.336;2023-02-02T18:24:38;95470.38;;;3.33;100.00
740;BME280;354;42.694;23.336;2023-02-02T18:27:04;95467.78;;;3.33;100.00
740;BME280;354;42.694;23.336;2023-02-02T18:29:29;95475.59;;;3.25;100.00
740;BME280;354;42.694;23.336;2023-02-02T18:31:58;95468.13;;;3.30;100.00
740;BME280;354;42.694;23.336;2023-02-02T18:34:27;95462.09;;;3.21;100.00
740;BME280;354;42.694;23.336;2023-02-02T18:36:53;95465.81;;;3.18;100.00
740;BME280;354;42.694;23.336;2023-02-02T18:39:18;95462.09;;;3.29;100.00
740;BME280;354;42.694;23.336;2023-02-02T18:41:43;95462.56;;;3.16;100.00
740;BME280;354;42.694;23.336;2023-02-02T18:44:09;95470.38;;;3.33;100.00
740;BME280;354;42.694;23.336;2023-02-02T18:46:34;95464.03;;;3.27;100.00
740;BME280;354;42.694;23.336;2023-02-02T18:48:59;95470.38;;;3.33;100.00
740;BME280;354;42.694;23.336;2023-02-02T18:51:25;95469.56;;;3.32;100.00
740;BME280;354;42.694;23.336;2023-02-02T18:53:50;95485.34;;;3.39;100.00
740;BME280;354;42.694;23.336;2023-02-02T18:56:16;95476.22;;;3.35;100.00
740;BME280;354;42.694;23.336;2023-02-02T18:58:42;95485.69;;;3.44;100.00
740;BME280;354;42.694;23.336;2023-02-02T19:01:26;95490.38;;;3.40;100.00
740;BME280;354;42.694;23.336;2023-02-02T19:03:53;95486.16;;;3.39;100.00
740;BME280;354;42.694;23.336;2023-02-02T19:06:22;95503.53;;;3.39;100.00
740;BME280;354;42.694;23.336;2023-02-02T19:09:07;95499.00;;;3.49;100.00
740;BME280;354;42.694;23.336;2023-02-02T19:11:41;95470.56;;;3.31;100.00
740;BME280;354;42.694;23.336;2023-02-02T19:16:39;95492.84;;;3.42;100.00
740;BME280;354;42.694;23.336;2023-02-02T19:19:21;95484.19;;;3.33;100.00
740;BME280;354;42.694;23.336;2023-02-02T19:21:55;95502.91;;;3.37;100.00
740;BME280;354;42.694;23.336;2023-02-02T19:24:20;95490.84;;;3.28;100.00
740;BME280;354;42.694;23.336;2023-02-02T19:26:47;95485.47;;;3.21;100.00
740;BME280;354;42.694;23.336;2023-02-02T19:29:24;95508.72;;;3.23;100.00
740;BME280;354;42.694;23.336;2023-02-02T19:32:04;95497.31;;;3.15;100.00
740;BME280;354;42.694;23.336;2023-02-02T19:34:33;95485.63;;;3.11;100.00